Meteo Giornale » Osservazioni meteo Stati Uniti (USA) » West Memphis
ore: 19:53 - Osservazioni Meteo West Memphis
Lat. 35° 8' N Lon. 90° 14' W Alt. 65 metri s.l.m.
30 °C
Sereno
Temp. 24 Ore
23 °C
36 °C
Nord
5.5 Km/h
Dew point 20 °C
Umidità 55 %
Visibilità 10 Km
Il sole sorge alle ore 06:32
Il sole tramonta alle ore 19:29
| Data e Ora | Cielo e Fenomeni | T °C | DP °C | Um. % | Pres. hPa | Vis. km | Vento km/h | |
|---|---|---|---|---|---|---|---|---|
| Oggi h: 19:53 | Sereno | 30 | 20 | 55 | 1015 | 10 | N 5.5 | |
| Oggi h: 18:53 | Sereno | 32 | 21 | 52 | 1015 | 10 | N 0 | |
| Oggi h: 17:53 | Sereno | 35 | 19 | 39 | 1015 | 10 | SO 7.4 | |
| Oggi h: 16:53 | Sereno | 36 | 19 | 36 | 1016 | 10 | S 14.8 | |
| Oggi h: 15:53 | Sereno | 36 | 19 | 36 | 1016 | 10 | S 14.8 | |
| Oggi h: 14:53 | Sereno | 36 | 20 | 39 | 1017 | 10 | N 9.3 | |
| Oggi h: 13:53 | Nuvoloso | 35 | 21 | 44 | 1017 | 10 | S/SE 11.1 | |
| Oggi h: 12:53 | Sereno | 34 | 22 | 49 | 1018 | 10 | S/SO 13 | |
| Oggi h: 11:53 | Nuvoloso | 32 | 22 | 55 | 1019 | 10 | SO 7.4 | |
| Oggi h: 10:53 | Sereno | 33 | 22 | 52 | 1019 | 10 | S 14.8 | |
| Oggi h: 09:53 | Sereno | 31 | 23 | 62 | 1019 | 10 | N 11.1 | |
| Oggi h: 08:53 | Sereno | 29 | 22 | 66 | 1019 | 10 | S 11.1 | |
| Oggi h: 07:53 | Sereno | 26 | 22 | 78 | 1018 | 10 | S 7.4 | |
| Oggi h: 06:53 | Sereno | 23 | 22 | 94 | 1018 | 10 | N 0 | |
| Oggi h: 05:53 | Sereno | 23 | 21 | 88 | 1017 | 10 | N 0 | |
| Oggi h: 04:53 | Sereno | 24 | 21 | 83 | 1017 | 10 | N 0 | |
| Oggi h: 03:53 | Sereno | 24 | 21 | 83 | 1016 | 10 | N 0 | |
| Oggi h: 02:53 | Sereno | 24 | 21 | 83 | 1016 | 10 | S 7.4 | |
| Oggi h: 01:53 | Sereno | 25 | 21 | 78 | 1016 | 10 | S 9.3 | |
| Oggi h: 00:53 | Sereno | 26 | 22 | 78 | 1017 | 10 | S 7.4 | |
| Ieri h: 23:53 | Sereno | 26 | 22 | 78 | 1016 | 10 | S 9.3 | |
| Ieri h: 22:53 | Sereno | 27 | 22 | 74 | 1016 | 10 | S/SE 7.4 | |
| Ieri h: 21:53 | Sereno | 28 | 22 | 69 | 1016 | 10 | S/SE 7.4 | |
| Ieri h: 20:53 | Poco Nuvoloso | 29 | 22 | 66 | 1016 | 10 | S/SE 7.4 | |



